Main page
METAR-TAF:

METAR-TAF

Airports :

Door County Cherryland Airport

Sturgeon Bay, Wisconsin, United States

latitude: 44-51N, longitude: 087-25W, elevation: 725 ft

Current weather observation

The report was made 8 hours and 2 minutes ago, at 10:22 UTC
Wind 16 mph from the North with gusts up to 23 mph
Temperature 30°F
Humidity 74%
Pressure 30.19 in. Hg
Visibility: 10 miles
Broken clouds at a height of 2600 ft

METAR: KSUE 241022Z AUTO 01014G20KT 10SM BKN026 M01/M05 A3019 RMK AO2 FZRANO

Time: 13:24 (18:24 UTC)


TAF: missing

Weather observations and forecasts of more than 4000 airports (METAR and TAF reports).

The available stations are represented by yellow and red dots on the map.

Hover mouse over dot to see the name of the station.

Then click to see weather observations and forecasts.

To change the map : click on the green buttons with a black cross to zoom in, on the green button with a dash to zoom out, or on the green arrows for adjacent maps.


METAR-TAF: